EAG5508 MMUN-MPTO
Flight info
| Callsign | EAG5508 |
|---|---|
| Flight time | 2h 2m |
| Altitude | 41000 |
| Route | TAKUX2A TAKUX UM782 OMIRO UN420 PELRA DCT SPP DCT MORLI OSUPA2C |
| Aircraft | A359/H-SDE2E3GHIJ3J4J5LM1ORWXY/LB1D1 |
Departure
| Time | 2026-05-04 16:55 |
|---|---|
| Airport | Cancún International Airport (MMUN) |
Arrival
| Time | 2026-05-04 18:57 |
|---|---|
| Airport | Tocumen International Airport (MPTO) |
| Time | Latitude | Longitude | Altitude | Speed | Heading |
|---|---|---|---|---|---|
| 2026-05-04 16:07 | 21.03625 | -86.87038 | 49 ft | 0 kts | 34° |
| 2026-05-04 16:44 | 21.03600 | -86.87056 | 45 ft | 4 kts | 33° |
| 2026-05-04 16:45 | 21.03553 | -86.87071 | 45 ft | 4 kts | 333° |
| 2026-05-04 16:46 | 21.03533 | -86.87053 | 45 ft | 4 kts | 304° |
| 2026-05-04 16:48 | 21.03534 | -86.87053 | 45 ft | 2 kts | 304° |
| 2026-05-04 16:48 | 21.03534 | -86.87106 | 45 ft | 9 kts | 232° |
| 2026-05-04 16:49 | 21.03567 | -86.87244 | 44 ft | 15 kts | 303° |
| 2026-05-04 16:49 | 21.03697 | -86.87449 | 45 ft | 19 kts | 302° |
| 2026-05-04 16:50 | 21.03854 | -86.87707 | 45 ft | 23 kts | 306° |
| 2026-05-04 16:50 | 21.04024 | -86.87968 | 46 ft | 18 kts | 303° |
| 2026-05-04 16:51 | 21.04179 | -86.88220 | 45 ft | 22 kts | 303° |
| 2026-05-04 16:51 | 21.04268 | -86.88359 | 45 ft | 24 kts | 303° |
| 2026-05-04 16:51 | 21.04448 | -86.88646 | 45 ft | 16 kts | 304° |
| 2026-05-04 16:52 | 21.04590 | -86.88877 | 47 ft | 21 kts | 303° |
| 2026-05-04 16:52 | 21.04629 | -86.88998 | 44 ft | 16 kts | 240° |
| 2026-05-04 16:53 | 21.04493 | -86.89037 | 42 ft | 1 kts | 123° |
| 2026-05-04 16:53 | 21.04195 | -86.88559 | 45 ft | 104 kts | 124° |
| 2026-05-04 16:54 | 21.03677 | -86.87733 | 46 ft | 161 kts | 124° |
| 2026-05-04 16:55 | 21.01224 | -86.82990 | 2133 ft | 225 kts | 118° |
| 2026-05-04 16:55 | 20.99551 | -86.79760 | 3104 ft | 260 kts | 119° |
| 2026-05-04 16:56 | 20.97746 | -86.76354 | 4527 ft | 269 kts | 120° |
| 2026-05-04 16:56 | 20.94793 | -86.71162 | 5126 ft | 275 kts | 126° |
| 2026-05-04 16:57 | 20.93681 | -86.69480 | 5691 ft | 279 kts | 126° |
| 2026-05-04 16:57 | 20.91424 | -86.66075 | 7233 ft | 285 kts | 126° |
| 2026-05-04 16:58 | 20.87958 | -86.60836 | 8466 ft | 292 kts | 126° |
| 2026-05-04 16:58 | 20.86783 | -86.59059 | 8481 ft | 293 kts | 126° |
| 2026-05-04 16:59 | 20.84423 | -86.55495 | 8475 ft | 294 kts | 126° |
| 2026-05-04 17:00 | 20.79702 | -86.48366 | 8478 ft | 294 kts | 126° |
| 2026-05-04 17:00 | 20.76170 | -86.43040 | 8480 ft | 293 kts | 126° |
| 2026-05-04 17:01 | 20.73818 | -86.39498 | 8550 ft | 291 kts | 126° |
| 2026-05-04 17:01 | 20.71444 | -86.35925 | 9796 ft | 297 kts | 126° |
| 2026-05-04 17:02 | 20.68813 | -86.32297 | 10725 ft | 329 kts | 139° |
| 2026-05-04 17:02 | 20.64654 | -86.29797 | 11235 ft | 364 kts | 156° |
| 2026-05-04 17:03 | 20.62322 | -86.28629 | 11653 ft | 375 kts | 156° |
| 2026-05-04 17:03 | 20.59946 | -86.27431 | 12210 ft | 381 kts | 156° |
| 2026-05-04 17:03 | 20.55097 | -86.24962 | 13323 ft | 391 kts | 156° |
| 2026-05-04 17:04 | 20.50134 | -86.22424 | 14396 ft | 399 kts | 156° |
| 2026-05-04 17:04 | 20.45144 | -86.19869 | 14949 ft | 402 kts | 156° |
| 2026-05-04 17:05 | 20.40095 | -86.17285 | 14980 ft | 403 kts | 155° |
| 2026-05-04 17:05 | 20.35046 | -86.14702 | 14980 ft | 402 kts | 155° |
| 2026-05-04 17:06 | 20.30003 | -86.12125 | 14980 ft | 402 kts | 156° |
| 2026-05-04 17:06 | 20.27477 | -86.10835 | 14980 ft | 402 kts | 156° |
| 2026-05-04 17:07 | 20.22493 | -86.08227 | 14978 ft | 403 kts | 151° |
| 2026-05-04 17:07 | 20.21698 | -86.07679 | 14979 ft | 404 kts | 145° |
| 2026-05-04 17:07 | 20.18129 | -86.04430 | 15576 ft | 408 kts | 139° |
| 2026-05-04 17:07 | 20.16023 | -86.02397 | 16169 ft | 409 kts | 139° |
| 2026-05-04 17:08 | 20.13908 | -86.00360 | 16710 ft | 411 kts | 139° |
| 2026-05-04 17:08 | 20.09628 | -85.96254 | 17736 ft | 417 kts | 139° |
| 2026-05-04 17:08 | 20.07468 | -85.94186 | 18245 ft | 419 kts | 139° |
| 2026-05-04 17:09 | 20.06029 | -85.92810 | 18547 ft | 421 kts | 139° |
| 2026-05-04 17:09 | 20.03131 | -85.90039 | 19028 ft | 426 kts | 139° |
| 2026-05-04 17:09 | 20.00910 | -85.87927 | 19396 ft | 430 kts | 139° |
| 2026-05-04 17:10 | 19.96398 | -85.83666 | 20164 ft | 438 kts | 139° |
| 2026-05-04 17:10 | 19.89477 | -85.77144 | 21368 ft | 449 kts | 139° |
| 2026-05-04 17:11 | 19.87928 | -85.75684 | 21639 ft | 451 kts | 139° |
| 2026-05-04 17:11 | 19.85569 | -85.73462 | 22049 ft | 455 kts | 139° |
| 2026-05-04 17:11 | 19.80012 | -85.68228 | 22991 ft | 464 kts | 139° |
| 2026-05-04 17:12 | 19.78375 | -85.66688 | 23269 ft | 467 kts | 139° |
| 2026-05-04 17:12 | 19.73513 | -85.62115 | 24018 ft | 473 kts | 139° |
| 2026-05-04 17:13 | 19.66109 | -85.55160 | 25336 ft | 478 kts | 139° |
| 2026-05-04 17:14 | 19.58562 | -85.48079 | 26680 ft | 487 kts | 140° |
| 2026-05-04 17:14 | 19.56050 | -85.45724 | 27117 ft | 490 kts | 140° |
| 2026-05-04 17:14 | 19.50911 | -85.40910 | 28010 ft | 496 kts | 140° |
| 2026-05-04 17:15 | 19.48315 | -85.38479 | 28447 ft | 499 kts | 140° |
| 2026-05-04 17:15 | 19.43076 | -85.33579 | 29274 ft | 506 kts | 140° |
| 2026-05-04 17:16 | 19.37766 | -85.28615 | 30083 ft | 511 kts | 140° |
| 2026-05-04 17:16 | 19.29736 | -85.21117 | 31044 ft | 519 kts | 141° |
| 2026-05-04 17:17 | 19.27021 | -85.18585 | 31352 ft | 522 kts | 141° |
| 2026-05-04 17:17 | 19.18794 | -85.10918 | 32219 ft | 529 kts | 141° |
| 2026-05-04 17:18 | 19.16030 | -85.08344 | 32487 ft | 531 kts | 141° |
| 2026-05-04 17:18 | 19.10529 | -85.03223 | 33256 ft | 529 kts | 141° |
| 2026-05-04 17:19 | 19.05013 | -84.98094 | 34035 ft | 527 kts | 142° |
| 2026-05-04 17:19 | 18.99549 | -84.93016 | 34893 ft | 520 kts | 142° |
| 2026-05-04 17:20 | 18.94103 | -84.87964 | 35405 ft | 521 kts | 142° |
| 2026-05-04 17:20 | 18.88657 | -84.82915 | 35977 ft | 521 kts | 142° |
| 2026-05-04 17:20 | 18.85931 | -84.80390 | 36257 ft | 521 kts | 142° |
| 2026-05-04 17:21 | 18.80526 | -84.75387 | 36795 ft | 520 kts | 142° |
| 2026-05-04 17:21 | 18.75088 | -84.70355 | 37332 ft | 520 kts | 143° |
| 2026-05-04 17:22 | 18.72367 | -84.67840 | 37595 ft | 519 kts | 143° |
| 2026-05-04 17:22 | 18.69653 | -84.65333 | 37849 ft | 519 kts | 143° |
| 2026-05-04 17:23 | 18.61599 | -84.57892 | 38842 ft | 511 kts | 143° |
| 2026-05-04 17:23 | 18.58960 | -84.55459 | 39023 ft | 511 kts | 143° |
| 2026-05-04 17:23 | 18.53532 | -84.50633 | 39331 ft | 508 kts | 149° |
| 2026-05-04 17:24 | 18.50549 | -84.48684 | 39498 ft | 502 kts | 158° |
| 2026-05-04 17:24 | 18.41161 | -84.43917 | 40001 ft | 498 kts | 160° |
| 2026-05-04 17:25 | 18.38005 | -84.42404 | 40145 ft | 498 kts | 160° |
| 2026-05-04 17:25 | 18.31698 | -84.39383 | 40403 ft | 498 kts | 160° |
| 2026-05-04 17:26 | 18.25438 | -84.36364 | 40682 ft | 498 kts | 160° |
| 2026-05-04 17:26 | 18.15994 | -84.31789 | 41017 ft | 499 kts | 160° |
| 2026-05-04 17:27 | 18.09697 | -84.28739 | 41014 ft | 498 kts | 160° |
| 2026-05-04 17:28 | 17.97170 | -84.22681 | 41011 ft | 497 kts | 160° |
| 2026-05-04 17:29 | 17.78353 | -84.13602 | 41019 ft | 497 kts | 160° |
| 2026-05-04 17:31 | 17.62636 | -84.06035 | 41019 ft | 497 kts | 160° |
| 2026-05-04 17:32 | 17.46989 | -83.98515 | 41016 ft | 496 kts | 160° |
| 2026-05-04 17:33 | 17.34446 | -83.92498 | 41012 ft | 496 kts | 160° |
| 2026-05-04 17:34 | 17.21949 | -83.86511 | 41006 ft | 495 kts | 159° |
| 2026-05-04 17:35 | 17.06289 | -83.79023 | 41005 ft | 495 kts | 159° |
| 2026-05-04 17:36 | 17.00067 | -83.76051 | 41007 ft | 495 kts | 159° |
| 2026-05-04 17:36 | 16.93801 | -83.73061 | 41001 ft | 495 kts | 159° |
| 2026-05-04 17:37 | 16.87542 | -83.70076 | 41002 ft | 494 kts | 159° |
| 2026-05-04 17:37 | 16.81290 | -83.67097 | 41012 ft | 494 kts | 159° |
| 2026-05-04 17:38 | 16.75041 | -83.64121 | 41005 ft | 494 kts | 159° |
| 2026-05-04 17:38 | 16.68831 | -83.61166 | 41010 ft | 494 kts | 159° |
| 2026-05-04 17:39 | 16.59458 | -83.56710 | 40999 ft | 494 kts | 159° |
| 2026-05-04 17:39 | 16.53215 | -83.53744 | 41011 ft | 493 kts | 159° |
| 2026-05-04 17:40 | 16.47019 | -83.50803 | 41006 ft | 493 kts | 159° |
| 2026-05-04 17:40 | 16.40774 | -83.47842 | 41008 ft | 493 kts | 159° |
| 2026-05-04 17:41 | 16.34531 | -83.44882 | 41009 ft | 493 kts | 159° |
| 2026-05-04 17:41 | 16.28285 | -83.41924 | 41008 ft | 493 kts | 159° |
| 2026-05-04 17:42 | 16.22035 | -83.38966 | 41002 ft | 494 kts | 158° |
| 2026-05-04 17:42 | 16.15813 | -83.36024 | 41004 ft | 495 kts | 158° |
| 2026-05-04 17:43 | 16.09535 | -83.33056 | 41003 ft | 496 kts | 158° |
| 2026-05-04 17:43 | 16.03259 | -83.30088 | 41004 ft | 496 kts | 158° |
| 2026-05-04 17:44 | 15.96994 | -83.27072 | 41004 ft | 496 kts | 158° |
| 2026-05-04 17:44 | 15.90783 | -83.24066 | 41003 ft | 496 kts | 158° |
| 2026-05-04 17:45 | 15.84526 | -83.21047 | 41003 ft | 495 kts | 158° |
| 2026-05-04 17:45 | 15.78286 | -83.18044 | 41000 ft | 494 kts | 158° |
| 2026-05-04 17:46 | 15.72060 | -83.15053 | 41004 ft | 494 kts | 158° |
| 2026-05-04 17:46 | 15.65816 | -83.12055 | 41002 ft | 494 kts | 158° |
| 2026-05-04 17:47 | 15.59621 | -83.09083 | 40999 ft | 494 kts | 158° |
| 2026-05-04 17:47 | 15.53385 | -83.06092 | 41002 ft | 494 kts | 158° |
| 2026-05-04 17:48 | 15.47153 | -83.03106 | 41001 ft | 493 kts | 158° |
| 2026-05-04 17:48 | 15.40924 | -83.00122 | 41000 ft | 493 kts | 158° |
| 2026-05-04 17:49 | 15.34739 | -82.97162 | 40999 ft | 493 kts | 158° |
| 2026-05-04 17:49 | 15.28512 | -82.94183 | 41000 ft | 493 kts | 158° |
| 2026-05-04 17:50 | 15.22279 | -82.91204 | 40997 ft | 493 kts | 158° |
| 2026-05-04 17:50 | 15.16055 | -82.88231 | 40994 ft | 493 kts | 158° |
| 2026-05-04 17:51 | 15.09834 | -82.85261 | 40997 ft | 491 kts | 158° |
| 2026-05-04 17:51 | 15.03669 | -82.82320 | 40996 ft | 491 kts | 158° |
| 2026-05-04 17:52 | 14.97467 | -82.79363 | 40995 ft | 491 kts | 158° |
| 2026-05-04 17:52 | 14.91259 | -82.76406 | 40996 ft | 491 kts | 158° |
| 2026-05-04 17:53 | 14.85052 | -82.73450 | 40997 ft | 491 kts | 158° |
| 2026-05-04 17:53 | 14.78896 | -82.70521 | 40992 ft | 490 kts | 158° |
| 2026-05-04 17:54 | 14.72708 | -82.67578 | 40993 ft | 489 kts | 158° |
| 2026-05-04 17:54 | 14.66536 | -82.64645 | 40992 ft | 488 kts | 158° |
| 2026-05-04 17:55 | 14.60369 | -82.61716 | 40993 ft | 488 kts | 158° |
| 2026-05-04 17:55 | 14.54239 | -82.58807 | 40992 ft | 488 kts | 158° |
| 2026-05-04 17:56 | 14.48065 | -82.55878 | 40992 ft | 488 kts | 158° |
| 2026-05-04 17:56 | 14.41895 | -82.52953 | 40990 ft | 488 kts | 158° |
| 2026-05-04 17:57 | 14.35724 | -82.50029 | 40989 ft | 488 kts | 158° |
| 2026-05-04 17:57 | 14.29589 | -82.47125 | 40987 ft | 488 kts | 158° |
| 2026-05-04 17:58 | 14.23417 | -82.44209 | 40988 ft | 488 kts | 158° |
| 2026-05-04 17:58 | 14.17200 | -82.41395 | 40988 ft | 488 kts | 159° |
| 2026-05-04 17:59 | 14.10971 | -82.38629 | 40985 ft | 487 kts | 159° |
| 2026-05-04 18:00 | 14.01694 | -82.34485 | 40987 ft | 485 kts | 159° |
| 2026-05-04 18:00 | 13.95506 | -82.31709 | 40990 ft | 485 kts | 159° |
| 2026-05-04 18:01 | 13.89326 | -82.28937 | 40988 ft | 485 kts | 159° |
| 2026-05-04 18:01 | 13.83135 | -82.26163 | 40985 ft | 485 kts | 159° |
| 2026-05-04 18:02 | 13.73895 | -82.22025 | 40986 ft | 485 kts | 159° |
| 2026-05-04 18:02 | 13.67714 | -82.19259 | 40985 ft | 484 kts | 159° |
| 2026-05-04 18:03 | 13.61542 | -82.16499 | 40985 ft | 483 kts | 159° |
| 2026-05-04 18:03 | 13.55373 | -82.13742 | 40984 ft | 483 kts | 159° |
| 2026-05-04 18:04 | 13.49245 | -82.11005 | 40977 ft | 483 kts | 159° |
| 2026-05-04 18:05 | 13.39999 | -82.06877 | 40977 ft | 483 kts | 159° |
| 2026-05-04 18:05 | 13.33828 | -82.04125 | 40978 ft | 483 kts | 158° |
| 2026-05-04 18:06 | 13.24634 | -82.00026 | 40977 ft | 482 kts | 158° |
| 2026-05-04 18:06 | 13.18485 | -81.97287 | 40976 ft | 482 kts | 158° |
| 2026-05-04 18:07 | 13.12336 | -81.94549 | 40977 ft | 482 kts | 158° |
| 2026-05-04 18:07 | 13.06184 | -81.91812 | 40976 ft | 482 kts | 158° |
| 2026-05-04 18:08 | 13.00073 | -81.89095 | 40977 ft | 482 kts | 158° |
| 2026-05-04 18:08 | 12.93933 | -81.86365 | 40977 ft | 481 kts | 158° |
| 2026-05-04 18:09 | 12.81670 | -81.80919 | 40973 ft | 480 kts | 158° |
| 2026-05-04 18:10 | 12.75580 | -81.78216 | 40968 ft | 480 kts | 158° |
| 2026-05-04 18:10 | 12.69452 | -81.75498 | 40968 ft | 480 kts | 158° |
| 2026-05-04 18:11 | 12.63323 | -81.72782 | 40963 ft | 480 kts | 158° |
| 2026-05-04 18:11 | 12.57272 | -81.69904 | 40969 ft | 480 kts | 153° |
| 2026-05-04 18:12 | 12.51471 | -81.66601 | 40965 ft | 480 kts | 152° |
| 2026-05-04 18:12 | 12.45648 | -81.63246 | 40965 ft | 480 kts | 152° |
| 2026-05-04 18:13 | 12.39833 | -81.59891 | 40964 ft | 480 kts | 152° |
| 2026-05-04 18:14 | 12.31116 | -81.54861 | 40955 ft | 479 kts | 152° |
| 2026-05-04 18:14 | 12.25349 | -81.51535 | 40959 ft | 479 kts | 152° |
| 2026-05-04 18:15 | 12.13753 | -81.44851 | 40961 ft | 478 kts | 152° |
| 2026-05-04 18:16 | 12.07962 | -81.41516 | 40960 ft | 478 kts | 152° |
| 2026-05-04 18:16 | 12.02206 | -81.38202 | 40954 ft | 478 kts | 152° |
| 2026-05-04 18:17 | 11.93515 | -81.33202 | 40956 ft | 478 kts | 152° |
| 2026-05-04 18:18 | 11.84823 | -81.28206 | 40956 ft | 478 kts | 152° |
| 2026-05-04 18:18 | 11.79078 | -81.24905 | 40955 ft | 477 kts | 152° |
| 2026-05-04 18:19 | 11.70406 | -81.19926 | 40950 ft | 477 kts | 152° |
| 2026-05-04 18:19 | 11.64627 | -81.16610 | 40948 ft | 477 kts | 152° |
| 2026-05-04 18:20 | 11.58844 | -81.13293 | 40951 ft | 477 kts | 152° |
| 2026-05-04 18:20 | 11.53064 | -81.09980 | 40952 ft | 477 kts | 152° |
| 2026-05-04 18:21 | 11.47330 | -81.06694 | 40950 ft | 476 kts | 152° |
| 2026-05-04 18:21 | 11.41563 | -81.03391 | 40946 ft | 475 kts | 152° |
| 2026-05-04 18:22 | 11.35792 | -81.00087 | 40946 ft | 475 kts | 152° |
| 2026-05-04 18:22 | 11.30026 | -80.96788 | 40947 ft | 475 kts | 152° |
| 2026-05-04 18:23 | 11.24300 | -80.93513 | 40947 ft | 475 kts | 152° |
| 2026-05-04 18:23 | 11.19083 | -80.90531 | 40947 ft | 475 kts | 152° |
| 2026-05-04 18:24 | 11.13320 | -80.87238 | 40940 ft | 474 kts | 152° |
| 2026-05-04 18:24 | 11.07579 | -80.83959 | 40941 ft | 473 kts | 152° |
| 2026-05-04 18:25 | 11.01874 | -80.80702 | 40941 ft | 473 kts | 152° |
| 2026-05-04 18:25 | 10.96136 | -80.77427 | 40941 ft | 473 kts | 152° |
| 2026-05-04 18:26 | 10.90395 | -80.74153 | 40941 ft | 473 kts | 152° |
| 2026-05-04 18:26 | 10.84654 | -80.70880 | 40937 ft | 473 kts | 152° |
| 2026-05-04 18:27 | 10.78954 | -80.67631 | 40939 ft | 473 kts | 152° |
| 2026-05-04 18:27 | 10.73213 | -80.64361 | 40939 ft | 473 kts | 152° |
| 2026-05-04 18:28 | 10.67816 | -80.60560 | 40935 ft | 475 kts | 135° |
| 2026-05-04 18:28 | 10.63714 | -80.55277 | 40934 ft | 477 kts | 128° |
| 2026-05-04 18:29 | 10.59760 | -80.49851 | 40934 ft | 478 kts | 128° |
| 2026-05-04 18:29 | 10.55819 | -80.44473 | 40932 ft | 477 kts | 128° |
| 2026-05-04 18:30 | 10.49860 | -80.36365 | 40931 ft | 477 kts | 128° |
| 2026-05-04 18:30 | 10.47876 | -80.33668 | 40749 ft | 477 kts | 128° |
| 2026-05-04 18:31 | 10.45889 | -80.30968 | 40500 ft | 477 kts | 128° |
| 2026-05-04 18:31 | 10.43902 | -80.28270 | 40254 ft | 478 kts | 128° |
| 2026-05-04 18:31 | 10.41912 | -80.25566 | 40016 ft | 478 kts | 128° |
| 2026-05-04 18:31 | 10.39943 | -80.22894 | 39772 ft | 479 kts | 128° |
| 2026-05-04 18:32 | 10.37950 | -80.20188 | 39492 ft | 478 kts | 128° |
| 2026-05-04 18:32 | 10.35962 | -80.17491 | 38904 ft | 477 kts | 128° |
| 2026-05-04 18:32 | 10.33975 | -80.14795 | 38218 ft | 477 kts | 127° |
| 2026-05-04 18:32 | 10.31985 | -80.12096 | 37536 ft | 477 kts | 127° |
| 2026-05-04 18:33 | 10.29998 | -80.09401 | 36864 ft | 477 kts | 127° |
| 2026-05-04 18:33 | 10.28011 | -80.06707 | 36199 ft | 477 kts | 127° |
| 2026-05-04 18:33 | 10.26020 | -80.04010 | 35495 ft | 478 kts | 127° |
| 2026-05-04 18:33 | 10.24052 | -80.01343 | 34806 ft | 480 kts | 127° |
| 2026-05-04 18:34 | 10.22045 | -79.98624 | 34033 ft | 483 kts | 127° |
| 2026-05-04 18:34 | 10.20021 | -79.95883 | 33138 ft | 487 kts | 127° |
| 2026-05-04 18:34 | 10.17983 | -79.93124 | 32269 ft | 490 kts | 126° |
| 2026-05-04 18:34 | 10.15933 | -79.90348 | 31396 ft | 494 kts | 126° |
| 2026-05-04 18:35 | 10.13863 | -79.87547 | 30491 ft | 498 kts | 126° |
| 2026-05-04 18:35 | 10.11773 | -79.84719 | 29470 ft | 503 kts | 126° |
| 2026-05-04 18:35 | 10.09673 | -79.81878 | 28673 ft | 502 kts | 126° |
| 2026-05-04 18:35 | 10.07584 | -79.79053 | 27971 ft | 499 kts | 127° |
| 2026-05-04 18:36 | 10.05535 | -79.76282 | 27271 ft | 496 kts | 127° |
| 2026-05-04 18:36 | 10.03468 | -79.73489 | 26593 ft | 493 kts | 126° |
| 2026-05-04 18:36 | 10.01424 | -79.70727 | 26239 ft | 483 kts | 126° |
| 2026-05-04 18:36 | 9.99438 | -79.68044 | 26106 ft | 468 kts | 126° |
| 2026-05-04 18:37 | 9.97516 | -79.65447 | 25984 ft | 454 kts | 126° |
| 2026-05-04 18:37 | 9.95645 | -79.62922 | 25796 ft | 442 kts | 126° |
| 2026-05-04 18:37 | 9.93825 | -79.60464 | 25611 ft | 430 kts | 126° |
| 2026-05-04 18:37 | 9.92049 | -79.58066 | 25421 ft | 420 kts | 126° |
| 2026-05-04 18:38 | 9.90318 | -79.55729 | 25244 ft | 409 kts | 127° |
| 2026-05-04 18:38 | 9.88658 | -79.53489 | 25089 ft | 398 kts | 126° |
| 2026-05-04 18:38 | 9.86956 | -79.51308 | 24810 ft | 391 kts | 133° |
| 2026-05-04 18:38 | 9.84836 | -79.49625 | 24409 ft | 388 kts | 152° |
| 2026-05-04 18:39 | 9.82418 | -79.48447 | 24049 ft | 384 kts | 156° |
| 2026-05-04 18:39 | 9.79981 | -79.47363 | 23539 ft | 378 kts | 156° |
| 2026-05-04 18:39 | 9.77588 | -79.46300 | 22908 ft | 371 kts | 156° |
| 2026-05-04 18:39 | 9.75249 | -79.45254 | 22467 ft | 366 kts | 156° |
| 2026-05-04 18:40 | 9.72929 | -79.44212 | 22057 ft | 363 kts | 156° |
| 2026-05-04 18:40 | 9.70632 | -79.43178 | 21660 ft | 360 kts | 156° |
| 2026-05-04 18:40 | 9.68385 | -79.42164 | 21258 ft | 357 kts | 155° |
| 2026-05-04 18:40 | 9.66129 | -79.41146 | 20855 ft | 354 kts | 155° |
| 2026-05-04 18:41 | 9.63896 | -79.40136 | 20459 ft | 350 kts | 155° |
| 2026-05-04 18:41 | 9.61678 | -79.39134 | 20075 ft | 348 kts | 154° |
| 2026-05-04 18:41 | 9.59478 | -79.38140 | 19683 ft | 345 kts | 155° |
| 2026-05-04 18:41 | 9.57328 | -79.37074 | 19285 ft | 342 kts | 147° |
| 2026-05-04 18:42 | 9.55370 | -79.35730 | 18907 ft | 339 kts | 142° |
| 2026-05-04 18:42 | 9.53477 | -79.34316 | 18541 ft | 336 kts | 142° |
| 2026-05-04 18:42 | 9.51640 | -79.32934 | 18215 ft | 332 kts | 142° |
| 2026-05-04 18:42 | 9.49790 | -79.31546 | 17807 ft | 329 kts | 142° |
| 2026-05-04 18:43 | 9.47961 | -79.30177 | 17434 ft | 326 kts | 142° |
| 2026-05-04 18:43 | 9.46143 | -79.28819 | 17068 ft | 323 kts | 142° |
| 2026-05-04 18:43 | 9.44340 | -79.27473 | 16695 ft | 321 kts | 142° |
| 2026-05-04 18:43 | 9.42542 | -79.26131 | 16339 ft | 320 kts | 142° |
| 2026-05-04 18:44 | 9.40755 | -79.24798 | 15984 ft | 318 kts | 142° |
| 2026-05-04 18:44 | 9.39576 | -79.23920 | 15736 ft | 317 kts | 142° |
| 2026-05-04 18:44 | 9.37231 | -79.22173 | 15266 ft | 315 kts | 142° |
| 2026-05-04 18:44 | 9.35470 | -79.20860 | 14898 ft | 314 kts | 142° |
| 2026-05-04 18:45 | 9.33717 | -79.19553 | 14541 ft | 312 kts | 142° |
| 2026-05-04 18:45 | 9.31973 | -79.18254 | 14187 ft | 310 kts | 142° |
| 2026-05-04 18:45 | 9.30239 | -79.16962 | 13838 ft | 309 kts | 142° |
| 2026-05-04 18:45 | 9.28495 | -79.15703 | 13465 ft | 308 kts | 146° |
| 2026-05-04 18:46 | 9.26522 | -79.14888 | 13117 ft | 309 kts | 168° |
| 2026-05-04 18:46 | 9.24377 | -79.14970 | 12842 ft | 314 kts | 193° |
| 2026-05-04 18:46 | 9.22394 | -79.15911 | 12366 ft | 317 kts | 211° |
| 2026-05-04 18:46 | 9.20561 | -79.17144 | 11949 ft | 316 kts | 212° |
| 2026-05-04 18:47 | 9.18777 | -79.18375 | 11574 ft | 313 kts | 212° |
| 2026-05-04 18:47 | 9.16978 | -79.19604 | 11193 ft | 311 kts | 212° |
| 2026-05-04 18:47 | 9.15189 | -79.20815 | 10830 ft | 309 kts | 212° |
| 2026-05-04 18:47 | 9.13404 | -79.22018 | 10467 ft | 307 kts | 211° |
| 2026-05-04 18:48 | 9.11626 | -79.23213 | 10109 ft | 306 kts | 211° |
| 2026-05-04 18:48 | 9.09858 | -79.24399 | 9731 ft | 304 kts | 211° |
| 2026-05-04 18:48 | 9.08098 | -79.25577 | 9355 ft | 303 kts | 211° |
| 2026-05-04 18:48 | 9.06332 | -79.26759 | 9033 ft | 306 kts | 212° |
| 2026-05-04 18:49 | 9.04581 | -79.27931 | 8846 ft | 303 kts | 212° |
| 2026-05-04 18:49 | 9.02851 | -79.29090 | 8804 ft | 292 kts | 212° |
| 2026-05-04 18:49 | 9.01173 | -79.30184 | 8626 ft | 283 kts | 208° |
| 2026-05-04 18:49 | 8.99451 | -79.31127 | 8282 ft | 280 kts | 205° |
| 2026-05-04 18:50 | 8.97730 | -79.32029 | 7918 ft | 277 kts | 206° |
| 2026-05-04 18:50 | 8.96026 | -79.32934 | 7519 ft | 277 kts | 206° |
| 2026-05-04 18:50 | 8.94325 | -79.33849 | 7115 ft | 277 kts | 206° |
| 2026-05-04 18:50 | 8.92635 | -79.34766 | 6773 ft | 274 kts | 207° |
| 2026-05-04 18:51 | 8.90975 | -79.35671 | 6297 ft | 269 kts | 207° |
| 2026-05-04 18:51 | 8.89355 | -79.36555 | 5712 ft | 266 kts | 207° |
| 2026-05-04 18:51 | 8.87731 | -79.37444 | 5449 ft | 265 kts | 207° |
| 2026-05-04 18:51 | 8.86200 | -79.38460 | 5152 ft | 264 kts | 222° |
| 2026-05-04 18:52 | 8.85238 | -79.40008 | 4838 ft | 262 kts | 255° |
| 2026-05-04 18:52 | 8.85188 | -79.41815 | 4398 ft | 259 kts | 287° |
| 2026-05-04 18:52 | 8.85946 | -79.43444 | 4007 ft | 255 kts | 304° |
| 2026-05-04 18:52 | 8.86891 | -79.44940 | 3718 ft | 250 kts | 305° |
| 2026-05-04 18:53 | 8.87883 | -79.46351 | 3496 ft | 241 kts | 314° |
| 2026-05-04 18:53 | 8.89251 | -79.47182 | 3350 ft | 225 kts | 350° |
| 2026-05-04 18:53 | 8.90754 | -79.47152 | 3150 ft | 217 kts | 10° |
| 2026-05-04 18:53 | 8.92126 | -79.46567 | 2882 ft | 213 kts | 32° |
| 2026-05-04 18:54 | 8.93350 | -79.45747 | 2594 ft | 208 kts | 31° |
| 2026-05-04 18:54 | 8.94569 | -79.45030 | 2266 ft | 196 kts | 27° |
| 2026-05-04 18:54 | 8.95721 | -79.44401 | 2010 ft | 180 kts | 29° |
| 2026-05-04 18:54 | 8.96776 | -79.43795 | 1779 ft | 171 kts | 29° |
| 2026-05-04 18:55 | 8.97810 | -79.43263 | 1645 ft | 162 kts | 27° |
| 2026-05-04 18:55 | 8.99663 | -79.42197 | 1202 ft | 152 kts | 31° |
| 2026-05-04 18:55 | 9.00583 | -79.41674 | 885 ft | 150 kts | 28° |
| 2026-05-04 18:56 | 9.01447 | -79.41182 | 774 ft | 138 kts | 33° |
| 2026-05-04 18:56 | 9.02248 | -79.40687 | 660 ft | 132 kts | 32° |
| 2026-05-04 18:56 | 9.03077 | -79.40228 | 478 ft | 145 kts | 27° |
| 2026-05-04 18:56 | 9.03954 | -79.39733 | 271 ft | 143 kts | 31° |
| 2026-05-04 18:57 | 9.04808 | -79.39235 | 97 ft | 139 kts | 28° |
| 2026-05-04 18:57 | 9.05605 | -79.38783 | 39 ft | 121 kts | 31° |
| 2026-05-04 18:57 | 9.06102 | -79.38498 | 37 ft | 43 kts | 30° |
| 2026-05-04 18:57 | 9.06280 | -79.38397 | 37 ft | 23 kts | 29° |
| 2026-05-04 18:58 | 9.06428 | -79.38375 | 36 ft | 17 kts | 360° |
| 2026-05-04 18:58 | 9.06485 | -79.38376 | 36 ft | 0 kts | 359° |
| 2026-05-04 18:59 | 9.06503 | -79.38376 | 36 ft | 8 kts | 359° |
| 2026-05-04 18:59 | 9.06596 | -79.38382 | 36 ft | 14 kts | 344° |
| 2026-05-04 18:59 | 9.06663 | -79.38436 | 36 ft | 11 kts | 271° |
| 2026-05-04 18:59 | 9.06680 | -79.38508 | 36 ft | 8 kts | 300° |
| 2026-05-04 19:00 | 9.06688 | -79.38521 | 36 ft | 4 kts | 301° |
| 2026-05-04 19:00 | 9.06705 | -79.38551 | 36 ft | 4 kts | 300° |
| 2026-05-04 19:00 | 9.06706 | -79.38553 | 36 ft | 0 kts | 300° |